createdAt,value
2018-01-08T00:02:20.422Z,90.70
2018-01-08T00:04:47.885Z,90.80
2018-01-08T00:07:15.300Z,90.60
2018-01-08T00:09:42.735Z,90.60
2018-01-08T00:12:10.159Z,90.60
2018-01-08T00:14:37.583Z,90.60
2018-01-08T00:17:05.776Z,90.50
2018-01-08T00:19:33.201Z,90.40
2018-01-08T00:22:00.624Z,90.50
2018-01-08T00:24:28.056Z,90.50
2018-01-08T00:26:55.489Z,91.00
2018-01-08T00:29:22.920Z,90.50
2018-01-08T00:31:50.348Z,90.60
2018-01-08T00:34:17.784Z,90.70
2018-01-08T00:36:45.199Z,90.50
2018-01-08T00:39:12.623Z,90.60
2018-01-08T00:41:40.828Z,90.70
2018-01-08T00:44:08.240Z,90.60
2018-01-08T00:46:35.671Z,90.70
2018-01-08T00:49:03.152Z,90.60
2018-01-08T00:51:31.305Z,90.60
2018-01-08T00:53:58.743Z,90.60
2018-01-08T00:56:26.164Z,90.60
2018-01-08T00:58:53.584Z,90.60
2018-01-08T01:01:21.812Z,90.60
2018-01-08T01:03:49.231Z,90.60
2018-01-08T01:06:16.689Z,90.60
2018-01-08T01:08:44.135Z,90.70
2018-01-08T01:11:11.576Z,90.70
2018-01-08T01:13:38.983Z,90.70
2018-01-08T01:16:06.404Z,90.60
2018-01-08T01:18:34.596Z,90.60
2018-01-08T01:21:02.016Z,90.50
2018-01-08T01:23:29.453Z,90.70
2018-01-08T01:25:56.875Z,90.60
2018-01-08T01:28:25.117Z,90.40
2018-01-08T01:30:52.490Z,90.80
2018-01-08T01:33:19.958Z,90.60
2018-01-08T01:35:48.099Z,90.70
2018-01-08T01:38:15.548Z,90.60
2018-01-08T01:40:42.977Z,90.50
2018-01-08T01:43:10.412Z,90.50
2018-01-08T01:45:38.621Z,90.50
2018-01-08T01:48:06.068Z,90.50
2018-01-08T01:50:33.499Z,90.50
2018-01-08T01:53:00.938Z,90.70
2018-01-08T01:55:28.351Z,90.80
2018-01-08T01:57:55.780Z,90.70
2018-01-08T02:00:23.223Z,90.70
2018-01-08T02:02:50.712Z,90.60
2018-01-08T02:05:18.147Z,90.70
2018-01-08T02:07:45.591Z,90.60
2018-01-08T02:10:13.008Z,91.00
2018-01-08T02:12:40.436Z,90.60
2018-01-08T02:15:07.864Z,90.60
2018-01-08T02:17:35.295Z,90.70
2018-01-08T02:20:03.477Z,90.80
2018-01-08T02:22:30.904Z,90.80
2018-01-08T02:24:58.339Z,90.80
2018-01-08T02:27:25.787Z,91.10
2018-01-08T02:29:53.184Z,90.60
2018-01-08T02:32:20.623Z,90.70
2018-01-08T02:34:48.057Z,90.70
2018-01-08T02:37:15.483Z,90.70
2018-01-08T02:39:42.904Z,90.60
2018-01-08T02:42:10.323Z,90.50
2018-01-08T02:44:38.516Z,90.40
2018-01-08T02:47:05.991Z,90.40
2018-01-08T02:49:33.415Z,90.60
2018-01-08T02:52:01.651Z,90.30
2018-01-08T02:54:29.072Z,90.40
2018-01-08T02:56:57.268Z,90.50
2018-01-08T02:59:24.736Z,90.40
2018-01-08T03:01:52.169Z,90.30
2018-01-08T03:04:19.604Z,90.30
2018-01-08T03:06:47.030Z,90.50
2018-01-08T03:09:14.452Z,90.50
2018-01-08T03:11:42.639Z,90.40
2018-01-08T03:14:10.072Z,90.40
2018-01-08T03:16:37.500Z,90.40
2018-01-08T03:19:04.927Z,90.70
2018-01-08T03:21:33.119Z,90.60
2018-01-08T03:24:00.539Z,90.20
2018-01-08T03:26:27.964Z,90.10
2018-01-08T03:28:56.176Z,90.20
2018-01-08T03:31:23.596Z,90.20
2018-01-08T03:33:51.043Z,90.20
2018-01-08T03:36:18.455Z,90.20
2018-01-08T03:38:46.663Z,90.30
2018-01-08T03:41:14.092Z,90.30
2018-01-08T03:43:41.511Z,90.20
2018-01-08T03:46:08.939Z,90.30
2018-01-08T03:48:37.136Z,90.20
2018-01-08T03:51:04.583Z,90.20
2018-01-08T03:53:32.032Z,90.20
2018-01-08T03:55:59.460Z,90.20
2018-01-08T03:58:26.902Z,90.00
2018-01-08T04:00:54.324Z,90.00
2018-01-08T04:03:21.741Z,90.00
2018-01-08T04:05:49.937Z,89.90
2018-01-08T04:08:17.363Z,89.80
2018-01-08T04:10:44.791Z,90.00
2018-01-08T04:13:12.991Z,89.60
2018-01-08T04:15:40.418Z,89.60
2018-01-08T04:18:07.828Z,89.50
2018-01-08T04:20:36.027Z,89.90
2018-01-08T04:23:03.460Z,89.90
2018-01-08T04:25:30.877Z,89.80
2018-01-08T04:27:59.071Z,89.90
2018-01-08T04:30:26.496Z,89.90
2018-01-08T04:32:53.916Z,89.70
2018-01-08T04:35:22.223Z,89.30
2018-01-08T04:37:49.647Z,89.30
2018-01-08T04:40:17.072Z,90.00
2018-01-08T04:42:44.500Z,89.20
2018-01-08T04:45:12.689Z,89.30
2018-01-08T04:47:40.117Z,89.20
2018-01-08T04:50:07.556Z,89.50
2018-01-08T04:52:34.984Z,89.40
2018-01-08T04:55:03.172Z,89.30
2018-01-08T04:57:30.594Z,89.30
2018-01-08T04:59:58.031Z,89.50
2018-01-08T05:02:26.219Z,89.70
2018-01-08T05:04:53.648Z,89.60
2018-01-08T05:07:21.075Z,89.60
2018-01-08T05:09:48.500Z,90.00
2018-01-08T05:12:16.692Z,89.00
2018-01-08T05:14:44.111Z,89.00
2018-01-08T05:17:12.304Z,89.10
2018-01-08T05:19:39.719Z,88.90
2018-01-08T05:22:07.199Z,89.50
2018-01-08T05:24:34.609Z,89.50
2018-01-08T05:27:02.048Z,89.30
2018-01-08T05:29:29.480Z,89.50
2018-01-08T05:31:56.911Z,89.50
2018-01-08T05:34:25.101Z,89.50
2018-01-08T05:36:52.524Z,89.40
2018-01-08T05:39:20.002Z,89.10
2018-01-08T05:41:47.403Z,88.90
2018-01-08T05:44:14.827Z,89.00
2018-01-08T05:46:43.059Z,89.30
2018-01-08T05:49:10.471Z,89.30
2018-01-08T05:51:37.896Z,89.00
2018-01-08T05:54:05.341Z,89.00
2018-01-08T05:56:32.768Z,88.90
2018-01-08T05:59:00.199Z,89.10
2018-01-08T06:01:28.415Z,89.70
2018-01-08T06:03:55.844Z,89.60
2018-01-08T06:06:23.296Z,91.10
2018-01-08T06:08:50.731Z,89.50
2018-01-08T06:11:18.153Z,88.80
2018-01-08T06:13:45.588Z,89.00
2018-01-08T06:16:13.008Z,88.50
2018-01-08T06:18:41.212Z,88.10
2018-01-08T06:21:08.651Z,88.00
2018-01-08T06:23:36.075Z,87.30
2018-01-08T06:26:03.507Z,88.70
2018-01-08T06:28:30.935Z,88.00
2018-01-08T06:30:58.518Z,87.60
2018-01-08T06:33:25.993Z,87.10
2018-01-08T06:35:53.425Z,87.40
2018-01-08T06:38:20.848Z,87.50
2018-01-08T06:40:48.278Z,87.30
2018-01-08T06:43:15.708Z,87.80
2018-01-08T06:45:43.124Z,88.60
2018-01-08T06:48:11.307Z,86.50
2018-01-08T06:50:38.727Z,86.40
2018-01-08T06:53:06.916Z,86.90
2018-01-08T06:55:34.331Z,86.80
2018-01-08T06:58:02.544Z,87.30
2018-01-08T07:00:29.963Z,87.20
2018-01-08T07:02:57.394Z,87.60
2018-01-08T07:05:24.822Z,87.60
2018-01-08T07:07:53.011Z,88.10
2018-01-08T07:10:20.476Z,88.10
2018-01-08T07:12:47.907Z,87.80
2018-01-08T07:15:15.334Z,87.70
2018-01-08T07:17:42.755Z,87.50
2018-01-08T07:20:10.178Z,87.70
2018-01-08T07:22:38.370Z,87.50
2018-01-08T07:25:05.784Z,87.40
2018-01-08T07:27:33.977Z,87.50
2018-01-08T07:30:01.396Z,87.40
2018-01-08T07:32:28.826Z,87.50
2018-01-08T07:34:57.020Z,87.70
2018-01-08T07:37:24.454Z,87.60
2018-01-08T07:39:51.889Z,87.30
2018-01-08T07:42:19.306Z,87.10
2018-01-08T07:44:47.508Z,87.00
2018-01-08T07:47:14.936Z,87.00
2018-01-08T07:49:42.363Z,87.00
2018-01-08T07:52:09.788Z,87.20
2018-01-08T07:54:37.985Z,87.00
2018-01-08T07:57:05.399Z,87.00
2018-01-08T07:59:32.826Z,86.90
2018-01-08T08:02:01.044Z,87.10
2018-01-08T08:04:28.468Z,87.00
2018-01-08T08:06:55.896Z,87.20
2018-01-08T08:09:23.325Z,86.70
2018-01-08T08:11:50.743Z,86.80
2018-01-08T08:14:18.931Z,86.50
2018-01-08T08:16:46.348Z,86.50
2018-01-08T08:19:14.535Z,86.60
2018-01-08T08:21:42.005Z,86.40
2018-01-08T08:24:09.428Z,86.90
2018-01-08T08:26:36.859Z,85.90
2018-01-08T08:29:04.287Z,85.70
2018-01-08T08:31:31.707Z,85.70
2018-01-08T08:33:59.892Z,85.80
2018-01-08T08:36:27.312Z,85.80
2018-01-08T08:38:55.503Z,85.30
2018-01-08T08:41:22.922Z,85.20
2018-01-08T08:43:51.129Z,84.80
2018-01-08T08:46:18.532Z,84.80
2018-01-08T08:48:45.975Z,84.90
2018-01-08T08:51:13.399Z,84.90
2018-01-08T08:53:41.583Z,84.80
2018-01-08T08:56:09.008Z,84.70
2018-01-08T08:58:36.449Z,84.70
2018-01-08T09:01:03.872Z,85.00
2018-01-08T09:03:32.132Z,84.60
2018-01-08T09:06:00.324Z,84.80
2018-01-08T09:08:27.747Z,84.40
2018-01-08T09:10:55.940Z,83.50
2018-01-08T09:13:23.363Z,83.50
2018-01-08T09:15:50.796Z,83.40
2018-01-08T09:18:18.280Z,83.60
2018-01-08T09:20:45.707Z,83.60
2018-01-08T09:23:13.128Z,83.10
2018-01-08T09:25:40.556Z,83.20
2018-01-08T09:28:08.748Z,83.40
2018-01-08T09:30:36.168Z,83.30
2018-01-08T09:33:03.604Z,83.20
2018-01-08T09:35:31.784Z,83.40
2018-01-08T09:37:59.203Z,83.40
2018-01-08T09:40:27.412Z,83.30
2018-01-08T09:42:54.835Z,83.30
2018-01-08T09:45:22.257Z,83.00
2018-01-08T09:47:49.680Z,83.40
2018-01-08T09:50:17.867Z,83.80
2018-01-08T09:52:45.299Z,83.70
2018-01-08T09:55:12.715Z,83.10
2018-01-08T09:57:40.904Z,82.80
2018-01-08T10:00:08.328Z,82.60
2018-01-08T10:02:47.696Z,82.50
2018-01-08T10:05:27.164Z,82.20
2018-01-08T10:08:07.295Z,81.10
2018-01-08T10:10:47.312Z,81.00
2018-01-08T10:13:26.548Z,81.00
2018-01-08T10:16:06.812Z,81.00
2018-01-08T10:18:33.739Z,81.00
2018-01-08T10:21:01.164Z,80.60
2018-01-08T10:23:28.584Z,80.70
2018-01-08T10:25:56.017Z,80.50
2018-01-08T10:28:23.444Z,80.80
2018-01-08T10:30:50.871Z,81.20
2018-01-08T10:33:18.296Z,81.40
2018-01-08T10:35:45.763Z,81.10
2018-01-08T10:38:13.191Z,81.40
2018-01-08T10:40:40.610Z,81.80
2018-01-08T10:43:13.803Z,81.40
2018-01-08T10:45:46.968Z,81.20
2018-01-08T10:48:20.151Z,81.60
2018-01-08T10:50:53.171Z,81.00
2018-01-08T10:53:39.452Z,81.40
2018-01-08T10:56:06.860Z,81.70
2018-01-08T10:58:34.283Z,81.10
2018-01-08T11:01:07.462Z,80.80
2018-01-08T11:03:40.470Z,81.50
2018-01-08T11:06:07.888Z,81.60
2018-01-08T11:08:35.315Z,82.80
2018-01-08T11:11:02.730Z,81.10
2018-01-08T11:13:30.927Z,79.80
2018-01-08T11:15:58.355Z,79.80
2018-01-08T11:18:25.764Z,80.20
2018-01-08T11:20:53.966Z,80.20
2018-01-08T11:23:21.384Z,80.10
2018-01-08T11:25:48.800Z,80.60
2018-01-08T11:28:16.987Z,79.70
2018-01-08T11:30:44.403Z,79.50
2018-01-08T11:33:12.600Z,79.70
2018-01-08T11:35:40.015Z,79.70
2018-01-08T11:38:08.208Z,79.30
2018-01-08T11:40:35.639Z,79.20
2018-01-08T11:43:03.072Z,79.50
2018-01-08T11:45:30.484Z,78.90
2018-01-08T11:47:58.695Z,79.40
2018-01-08T11:50:26.128Z,79.30
2018-01-08T11:52:53.634Z,78.90
2018-01-08T11:55:21.028Z,79.30
2018-01-08T11:57:48.448Z,78.70
2018-01-08T12:00:15.867Z,79.20
2018-01-08T12:02:43.344Z,78.90
2018-01-08T12:05:10.768Z,79.30
2018-01-08T12:07:38.189Z,78.80
2018-01-08T12:10:05.612Z,79.20
2018-01-08T12:12:33.851Z,80.30
2018-01-08T12:15:01.264Z,80.30
2018-01-08T12:17:28.712Z,79.80
2018-01-08T12:19:56.159Z,80.70
2018-01-08T12:22:23.588Z,81.10
2018-01-08T12:24:51.024Z,81.30
2018-01-08T12:27:18.466Z,81.20
2018-01-08T12:29:45.880Z,81.60
2018-01-08T12:32:14.083Z,80.40
2018-01-08T12:34:41.503Z,80.40
2018-01-08T12:37:08.932Z,80.10
2018-01-08T12:39:36.364Z,80.50
2018-01-08T12:42:04.548Z,80.10
2018-01-08T12:44:31.967Z,80.00
2018-01-08T12:46:59.388Z,80.10
2018-01-08T12:49:27.580Z,80.70
2018-01-08T12:51:55.015Z,80.70
2018-01-08T12:54:22.450Z,80.90
2018-01-08T12:56:50.631Z,80.60
2018-01-08T12:59:18.060Z,80.60
2018-01-08T13:01:45.490Z,81.40
2018-01-08T13:04:13.684Z,80.80
2018-01-08T13:06:41.103Z,80.80
2018-01-08T13:09:08.538Z,80.50
2018-01-08T13:11:36.715Z,80.40
2018-01-08T13:14:04.144Z,80.30
2018-01-08T13:16:31.588Z,80.20
2018-01-08T13:18:59.008Z,80.30
2018-01-08T13:21:27.199Z,79.00
2018-01-08T13:23:54.622Z,78.90
2018-01-08T13:26:22.043Z,78.40
2018-01-08T13:28:50.239Z,77.40
2018-01-08T13:31:17.679Z,77.40
2018-01-08T13:33:45.107Z,76.70
2018-01-08T13:36:13.297Z,75.40
2018-01-08T13:38:40.727Z,75.40
2018-01-08T13:41:08.169Z,75.50
2018-01-08T13:43:35.579Z,74.50
2018-01-08T13:46:03.023Z,75.60
2018-01-08T13:48:30.447Z,74.70
2018-01-08T13:50:58.668Z,74.20
2018-01-08T13:53:26.088Z,74.10
2018-01-08T13:55:53.524Z,74.40
2018-01-08T13:58:20.946Z,73.70
2018-01-08T14:00:49.139Z,74.20
2018-01-08T14:03:16.556Z,74.10
2018-01-08T14:05:43.996Z,75.00
2018-01-08T14:08:11.420Z,74.70
2018-01-08T14:10:39.644Z,75.00
2018-01-08T14:13:07.065Z,74.90
2018-01-08T14:15:34.496Z,75.90
2018-01-08T14:18:01.915Z,75.90
2018-01-08T14:20:29.354Z,75.90
2018-01-08T14:22:57.536Z,77.00
2018-01-08T14:25:24.960Z,76.90
2018-01-08T14:27:52.398Z,76.70
2018-01-08T14:30:19.828Z,77.30
2018-01-08T14:32:48.011Z,77.30
2018-01-08T14:35:15.444Z,77.20
2018-01-08T14:37:42.868Z,76.90
2018-01-08T14:40:11.072Z,77.00
2018-01-08T14:42:38.504Z,77.10
2018-01-08T14:45:05.984Z,78.20
2018-01-08T14:47:33.432Z,77.60
2018-01-08T14:50:00.897Z,77.30
2018-01-08T14:52:28.308Z,77.40
2018-01-08T14:54:55.728Z,77.30
2018-01-08T14:57:23.168Z,77.70
2018-01-08T14:59:50.633Z,77.90
2018-01-08T15:02:18.050Z,78.60
2018-01-08T15:04:45.478Z,78.80
2018-01-08T15:07:12.892Z,78.50
2018-01-08T15:09:41.080Z,78.80
2018-01-08T15:12:08.520Z,78.70
2018-01-08T15:14:35.940Z,78.90
2018-01-08T15:17:03.384Z,78.70
2018-01-08T15:19:30.803Z,79.20
2018-01-08T15:21:59.000Z,79.90
2018-01-08T15:24:26.411Z,79.70
2018-01-08T15:26:54.611Z,79.60
2018-01-08T15:29:22.035Z,79.60
2018-01-08T15:31:49.487Z,80.10
2018-01-08T15:34:16.904Z,79.90
2018-01-08T15:36:44.327Z,79.70
2018-01-08T15:39:12.520Z,80.90
2018-01-08T15:41:39.943Z,80.80
2018-01-08T15:44:07.371Z,80.20
2018-01-08T15:46:35.563Z,80.50
2018-01-08T15:49:02.998Z,80.40
2018-01-08T15:51:30.415Z,80.40
2018-01-08T15:53:58.620Z,80.40
2018-01-08T15:56:26.053Z,80.40
2018-01-08T15:58:53.471Z,80.60
2018-01-08T16:01:20.928Z,80.70
2018-01-08T16:03:48.366Z,80.50
2018-01-08T16:06:15.827Z,80.90
2018-01-08T16:08:43.235Z,80.70
2018-01-08T16:11:11.424Z,80.90
2018-01-08T16:13:38.860Z,80.90
2018-01-08T16:16:06.280Z,80.00
2018-01-08T16:18:33.720Z,80.00
2018-01-08T16:21:01.915Z,80.30
2018-01-08T16:23:29.339Z,80.20
2018-01-08T16:25:56.768Z,80.40
2018-01-08T16:28:24.196Z,80.10
2018-01-08T16:30:52.380Z,80.60
2018-01-08T16:33:19.832Z,80.50
2018-01-08T16:35:47.252Z,81.20
2018-01-08T16:38:14.691Z,80.20
2018-01-08T16:40:42.116Z,80.80
2018-01-08T16:43:10.316Z,80.50
2018-01-08T16:45:37.747Z,80.40
2018-01-08T16:48:05.163Z,80.80
2018-01-08T16:50:33.352Z,80.70
2018-01-08T16:53:00.794Z,80.70
2018-01-08T16:55:28.220Z,81.30
2018-01-08T16:57:55.648Z,81.10
2018-01-08T17:00:23.849Z,80.80
2018-01-08T17:02:51.316Z,80.80
2018-01-08T17:05:18.755Z,80.90
2018-01-08T17:07:46.219Z,81.10
2018-01-08T17:10:13.635Z,81.70
2018-01-08T17:12:41.060Z,81.70
2018-01-08T17:15:08.550Z,81.60
2018-01-08T17:17:35.961Z,81.80
2018-01-08T17:20:03.409Z,82.20
2018-01-08T17:22:31.610Z,82.10
2018-01-08T17:24:59.040Z,82.00
2018-01-08T17:27:27.223Z,81.90
2018-01-08T17:29:54.662Z,81.80
2018-01-08T17:32:22.083Z,81.90
2018-01-08T17:34:50.266Z,82.20
2018-01-08T17:37:17.762Z,82.10
2018-01-08T17:39:45.191Z,82.40
2018-01-08T17:42:12.613Z,82.60
2018-01-08T17:44:40.082Z,82.60
2018-01-08T17:47:07.535Z,82.60
2018-01-08T17:49:35.776Z,82.40
2018-01-08T17:52:03.181Z,82.40
2018-01-08T17:54:30.620Z,82.40
2018-01-08T17:56:58.081Z,82.30
2018-01-08T17:59:25.554Z,86.20
2018-01-08T18:01:52.998Z,82.60
2018-01-08T18:04:20.412Z,82.90
2018-01-08T18:06:47.841Z,83.00
2018-01-08T18:09:15.280Z,83.00
2018-01-08T18:11:42.687Z,80.60
2018-01-08T18:14:10.888Z,80.90
2018-01-08T18:16:38.321Z,81.00
2018-01-08T18:19:05.736Z,81.40
2018-01-08T18:21:33.165Z,81.80
2018-01-08T18:24:01.352Z,83.40
2018-01-08T18:26:28.837Z,82.60
2018-01-08T18:28:56.297Z,82.80
2018-01-08T18:31:23.712Z,82.80
2018-01-08T18:33:51.169Z,82.60
2018-01-08T18:36:18.626Z,82.90
2018-01-08T18:38:46.843Z,83.00
2018-01-08T18:41:14.321Z,83.00
2018-01-08T18:43:41.751Z,83.50
2018-01-08T18:46:10.737Z,83.50
2018-01-08T18:48:38.156Z,83.40
2018-01-08T18:51:05.588Z,83.50
2018-01-08T18:53:33.062Z,83.30
2018-01-08T18:56:01.263Z,83.00
2018-01-08T18:58:28.748Z,83.10
2018-01-08T19:00:56.206Z,83.20
2018-01-08T19:03:23.661Z,83.40
2018-01-08T19:05:51.895Z,83.30
2018-01-08T19:08:19.349Z,83.90
2018-01-08T19:10:46.823Z,83.70
2018-01-08T19:13:15.007Z,84.00
2018-01-08T19:15:42.486Z,83.90
2018-01-08T19:18:09.901Z,84.40
2018-01-08T19:20:37.375Z,85.20
2018-01-08T19:23:04.792Z,85.50
2018-01-08T19:25:32.275Z,85.70
2018-01-08T19:28:00.466Z,85.70
2018-01-08T19:30:27.880Z,85.60
2018-01-08T19:32:56.118Z,86.50
2018-01-08T19:35:23.579Z,86.40
2018-01-08T19:37:51.847Z,87.00
2018-01-08T19:40:19.288Z,86.50
2018-01-08T19:42:47.476Z,88.00
2018-01-08T19:45:14.951Z,87.30
2018-01-08T19:47:42.419Z,87.60
2018-01-08T19:50:11.403Z,88.30
2018-01-08T19:52:38.858Z,88.40
2018-01-08T19:55:07.044Z,87.80
2018-01-08T19:57:39.323Z,87.70
2018-01-08T20:00:06.785Z,88.30
2018-01-08T20:02:34.283Z,88.70
2018-01-08T20:05:01.683Z,88.40
2018-01-08T20:07:29.927Z,89.00
2018-01-08T20:09:57.340Z,89.00
2018-01-08T20:12:24.772Z,89.50
2018-01-08T20:14:52.191Z,90.00
2018-01-08T20:17:19.679Z,90.20
2018-01-08T20:19:47.146Z,90.20
2018-01-08T20:22:14.634Z,90.30
2018-01-08T20:24:42.145Z,90.20
2018-01-08T20:27:10.367Z,90.60
2018-01-08T20:29:37.832Z,90.50
2018-01-08T20:32:05.309Z,90.70
2018-01-08T20:34:32.795Z,90.80
2018-01-08T20:37:00.260Z,90.90
2018-01-08T20:39:27.718Z,91.00
2018-01-08T20:41:55.988Z,91.20
2018-01-08T20:44:24.250Z,91.10
2018-01-08T20:46:52.475Z,91.10
2018-01-08T20:49:19.957Z,91.00
2018-01-08T20:51:48.179Z,91.10
2018-01-08T20:54:15.643Z,91.10
2018-01-08T20:56:43.879Z,91.40
2018-01-08T20:59:11.358Z,91.30
2018-01-08T21:01:39.599Z,91.10
2018-01-08T21:04:07.839Z,91.40
2018-01-08T21:06:35.319Z,91.10
2018-01-08T21:09:03.509Z,91.10
2018-01-08T21:11:31.001Z,91.10
2018-01-08T21:13:58.459Z,91.10
2018-01-08T21:16:26.695Z,91.30
2018-01-08T21:18:54.146Z,91.30
2018-01-08T21:21:22.371Z,91.70
2018-01-08T21:23:49.835Z,91.30
2018-01-08T21:26:17.400Z,91.40
2018-01-08T21:28:45.662Z,91.60
2018-01-08T21:31:13.102Z,91.60
2018-01-08T21:33:41.276Z,91.70
2018-01-08T21:36:08.741Z,91.70
2018-01-08T21:38:36.214Z,91.80
2018-01-08T21:41:03.675Z,92.00
2018-01-08T21:43:31.144Z,91.80
2018-01-08T21:45:59.370Z,91.80
2018-01-08T21:48:26.838Z,91.80
2018-01-08T21:50:55.103Z,91.80
2018-01-08T21:53:23.343Z,91.80
2018-01-08T21:55:50.808Z,91.80
2018-01-08T21:58:19.041Z,92.00
2018-01-08T22:00:46.543Z,92.00
2018-01-08T22:03:14.730Z,91.90
2018-01-08T22:05:42.307Z,92.20
2018-01-08T22:08:10.543Z,91.90
2018-01-08T22:10:38.004Z,91.90
2018-01-08T22:13:06.234Z,91.80
2018-01-08T22:15:33.698Z,91.80
2018-01-08T22:18:01.918Z,92.00
2018-01-08T22:20:29.379Z,92.00
2018-01-08T22:22:56.830Z,91.90
2018-01-08T22:25:25.814Z,91.80
2018-01-08T22:27:54.747Z,91.80
2018-01-08T22:30:22.214Z,91.80
2018-01-08T22:32:49.668Z,91.80
2018-01-08T22:35:17.135Z,91.80
2018-01-08T22:37:45.304Z,92.00
2018-01-08T22:40:12.798Z,91.90
2018-01-08T22:42:40.254Z,91.90
2018-01-08T22:45:07.679Z,92.10
2018-01-08T22:47:35.158Z,92.10
2018-01-08T22:50:02.623Z,92.10
2018-01-08T22:52:30.024Z,92.20
2018-01-08T22:54:57.490Z,92.20
2018-01-08T22:57:25.721Z,92.20
2018-01-08T22:59:53.174Z,92.20
2018-01-08T23:02:20.647Z,92.10
2018-01-08T23:04:48.871Z,92.00
2018-01-08T23:07:16.313Z,92.00
2018-01-08T23:09:43.774Z,92.20
2018-01-08T23:12:12.003Z,92.50
2018-01-08T23:14:39.470Z,92.50
2018-01-08T23:17:07.722Z,92.40
2018-01-08T23:19:35.181Z,92.40
2018-01-08T23:22:03.401Z,92.30
2018-01-08T23:24:30.857Z,92.30
2018-01-08T23:26:58.317Z,92.70
2018-01-08T23:29:25.761Z,92.30
2018-01-08T23:31:53.978Z,92.40
2018-01-08T23:34:21.441Z,92.40
2018-01-08T23:36:48.867Z,92.40
2018-01-08T23:39:16.300Z,92.50
2018-01-08T23:41:43.741Z,92.40
2018-01-08T23:44:11.163Z,92.40
2018-01-08T23:46:38.633Z,92.40
2018-01-08T23:49:06.056Z,92.50
2018-01-08T23:51:33.485Z,92.40
2018-01-08T23:54:00.904Z,92.50
2018-01-08T23:56:28.390Z,92.60
2018-01-08T23:58:55.801Z,92.40
